Time;durP1;ratioP1;P1;durP2;ratioP2;P2;SDS_P1;SDS_P2;PMS_P1;PMS_P2;Temp;Humidity;BMP_temperature;BMP_pressure;BME280_temperature;BME280_humidity;BME280_pressure;Samples;Min_cycle;Max_cycle;Signal;HPM_P1;HPM_P2
2021/10/19 00:00:54;;;;;;;0.50;0.50;;;13.60;99.90;;;;;;5031278;28;20285;-88
2021/10/19 00:03:27;;;;;;;1.23;0.50;;;13.50;99.90;;;;;;5021247;28;20255;-86
2021/10/19 00:05:58;;;;;;;1.63;0.63;;;13.40;99.90;;;;;;5020172;28;20746;-87
2021/10/19 00:08:30;;;;;;;3.80;0.90;;;13.30;99.90;;;;;;5029623;28;20584;-90
2021/10/19 00:11:01;;;;;;;1.40;0.60;;;13.30;99.90;;;;;;5016106;28;20202;-88
2021/10/19 00:13:36;;;;;;;1.53;0.57;;;13.30;99.90;;;;;;5045323;28;20289;-89
2021/10/19 00:16:10;;;;;;;2.63;1.60;;;13.20;99.90;;;;;;5043776;28;20219;-89
2021/10/19 00:18:57;;;;;;;2.30;0.60;;;13.10;99.90;;;;;;5050858;28;20228;-90
2021/10/19 00:21:33;;;;;;;0.47;0.43;;;13.00;99.90;;;;;;5050625;28;20213;-88
2021/10/19 00:24:05;;;;;;;2.90;0.60;;;12.90;99.90;;;;;;5047734;28;20267;-89
2021/10/19 00:26:40;;;;;;;0.47;0.40;;;13.00;99.90;;;;;;5023851;28;20240;-90
2021/10/19 00:29:30;;;;;;;1.90;0.57;;;12.90;99.90;;;;;;5033127;28;20259;-92
2021/10/19 00:32:04;;;;;;;1.40;0.40;;;12.80;99.90;;;;;;5049801;28;20563;-91
2021/10/19 00:34:36;;;;;;;1.57;0.70;;;12.80;99.90;;;;;;5051433;28;20235;-92
2021/10/19 00:37:07;;;;;;;0.77;0.53;;;12.80;99.90;;;;;;5032201;28;20201;-91
2021/10/19 00:39:42;;;;;;;2.23;0.90;;;12.70;99.90;;;;;;5047502;28;20205;-92
2021/10/19 00:42:13;;;;;;;1.60;0.87;;;12.70;99.90;;;;;;5045828;28;20247;-91
2021/10/19 00:44:47;;;;;;;1.43;0.80;;;12.70;99.90;;;;;;5050609;28;20224;-92
2021/10/19 00:47:22;;;;;;;1.50;0.80;;;12.70;99.90;;;;;;5049549;28;20223;-89
2021/10/19 00:49:55;;;;;;;0.70;0.70;;;12.60;99.90;;;;;;5049314;28;20204;-90
2021/10/19 00:52:28;;;;;;;1.37;0.70;;;12.60;99.90;;;;;;5031766;28;20206;-89
2021/10/19 00:55:03;;;;;;;3.00;0.77;;;12.50;99.90;;;;;;5030062;28;20213;-90
2021/10/19 00:57:36;;;;;;;1.03;0.60;;;12.50;99.90;;;;;;5038650;28;20201;-94
2021/10/19 01:00:15;;;;;;;1.13;0.70;;;12.40;99.90;;;;;;5044793;28;20224;-94
2021/10/19 01:02:49;;;;;;;1.47;0.70;;;12.40;99.90;;;;;;5049726;28;20200;-96
2021/10/19 01:05:24;;;;;;;2.73;0.63;;;12.30;99.90;;;;;;5045953;28;20228;-96
2021/10/19 01:08:00;;;;;;;1.93;0.70;;;12.20;99.90;;;;;;5047875;28;20219;-96
2021/10/19 01:10:35;;;;;;;2.27;0.70;;;12.20;99.90;;;;;;5027428;28;20225;-95
2021/10/19 01:13:07;;;;;;;0.80;0.80;;;12.20;99.90;;;;;;5035205;28;20678;-94
2021/10/19 01:15:41;;;;;;;2.07;1.40;;;12.20;99.90;;;;;;5044476;28;20282;-95
2021/10/19 01:18:15;;;;;;;2.70;0.90;;;12.20;99.90;;;;;;5027473;28;20260;-96
2021/10/19 01:20:50;;;;;;;1.63;0.87;;;12.10;99.90;;;;;;5022258;28;20240;-95
2021/10/19 01:23:24;;;;;;;3.47;1.10;;;12.10;99.90;;;;;;5027696;28;20211;-95
2021/10/19 01:28:53;;;;;;;1.73;1.00;;;12.10;99.90;;;;;;5053471;28;20342;-93
2021/10/19 01:31:25;;;;;;;2.37;1.27;;;12.10;99.90;;;;;;5057324;28;20217;-93
2021/10/19 01:33:57;;;;;;;3.53;1.57;;;12.00;99.90;;;;;;5057964;28;20269;-95
2021/10/19 01:36:32;;;;;;;6.47;1.90;;;12.00;99.90;;;;;;5055318;28;20224;-95
2021/10/19 01:39:05;;;;;;;2.57;1.40;;;12.00;99.90;;;;;;5140313;23;20347;-96
2021/10/19 01:41:37;;;;;;;1.70;1.10;;;11.90;99.90;;;;;;5026404;28;20236;-96
2021/10/19 01:44:11;;;;;;;1.57;1.00;;;11.90;99.90;;;;;;5016270;28;20202;-96
2021/10/19 01:46:43;;;;;;;1.70;1.10;;;11.90;99.90;;;;;;5005534;28;20244;-96
2021/10/19 01:49:16;;;;;;;1.87;0.93;;;11.90;99.90;;;;;;5045539;28;20208;-96
2021/10/19 01:51:52;;;;;;;1.57;1.00;;;11.90;99.90;;;;;;5055930;28;20217;-95
2021/10/19 01:54:24;;;;;;;3.47;1.10;;;11.90;99.90;;;;;;5044907;28;20232;-96
2021/10/19 01:56:55;;;;;;;2.67;1.10;;;11.90;99.90;;;;;;5139248;23;20249;-95
2021/10/19 02:02:30;;;;;;;2.03;1.10;;;11.90;99.90;;;;;;5037292;28;20202;-96
2021/10/19 02:05:04;;;;;;;1.37;1.10;;;11.80;99.90;;;;;;5025576;28;20221;-96
2021/10/19 02:07:47;;;;;;;1.53;1.13;;;11.80;99.90;;;;;;5035395;28;20255;-96
2021/10/19 02:10:19;;;;;;;1.50;1.00;;;11.80;99.90;;;;;;5030465;28;20205;-96
2021/10/19 02:12:52;;;;;;;1.33;1.03;;;11.80;99.90;;;;;;5051301;28;20200;-96
2021/10/19 02:15:27;;;;;;;4.33;1.07;;;11.80;99.90;;;;;;5050298;28;20198;-95
2021/10/19 02:23:59;;;;;;;3.43;1.80;;;11.70;99.90;;;;;;5059896;28;20224;-96
2021/10/19 02:26:37;;;;;;;3.33;1.60;;;11.70;99.90;;;;;;5067659;28;20262;-96
2021/10/19 02:29:19;;;;;;;2.60;1.67;;;11.70;99.90;;;;;;5061982;28;20214;-96
2021/10/19 02:31:59;;;;;;;2.07;1.37;;;11.80;99.90;;;;;;5071111;28;20222;-95
2021/10/19 02:34:35;;;;;;;4.47;1.63;;;11.70;99.90;;;;;;5062579;28;20204;-96
2021/10/19 02:37:08;;;;;;;5.33;2.13;;;11.70;99.90;;;;;;5059528;28;20268;-96
2021/10/19 02:39:50;;;;;;;3.40;2.30;;;11.70;99.90;;;;;;5060350;28;20207;-96
2021/10/19 02:42:24;;;;;;;3.40;1.60;;;11.70;99.90;;;;;;5066622;28;20623;-96
2021/10/19 02:47:59;;;;;;;2.37;1.23;;;11.60;99.90;;;;;;5058721;28;20232;-96
2021/10/19 02:50:33;;;;;;;2.23;1.30;;;11.60;99.90;;;;;;5066718;28;20193;-96
2021/10/19 02:53:07;;;;;;;3.33;1.80;;;11.60;99.90;;;;;;5057052;28;20300;-96
2021/10/19 02:55:49;;;;;;;2.43;1.80;;;11.60;99.90;;;;;;5065236;28;20215;-96
2021/10/19 02:58:20;;;;;;;3.90;2.07;;;11.50;99.90;;;;;;5062358;28;20571;-96
2021/10/19 03:00:56;;;;;;;3.23;1.83;;;11.50;99.90;;;;;;5066336;28;20196;-96
2021/10/19 03:03:32;;;;;;;3.83;2.10;;;11.50;99.90;;;;;;5070427;28;20736;-96
2021/10/19 03:06:04;;;;;;;3.80;2.37;;;11.50;99.90;;;;;;5058616;28;20201;-96
2021/10/19 03:08:36;;;;;;;3.83;2.53;;;11.50;99.90;;;;;;5051044;28;20193;-96
2021/10/19 03:11:13;;;;;;;3.23;2.60;;;11.50;99.90;;;;;;5061210;28;20211;-96
2021/10/19 03:13:51;;;;;;;3.93;2.60;;;11.50;99.90;;;;;;5052045;28;20215;-96
2021/10/19 03:16:24;;;;;;;3.47;2.17;;;11.50;99.90;;;;;;5049955;28;20239;-96
2021/10/19 03:18:58;;;;;;;4.07;2.13;;;11.50;99.90;;;;;;5056288;28;20205;-96
2021/10/19 03:21:35;;;;;;;3.43;2.40;;;11.50;99.90;;;;;;5073247;28;20198;-93
2021/10/19 03:24:14;;;;;;;3.47;2.57;;;11.50;99.90;;;;;;5071742;28;20232;-95
2021/10/19 03:29:47;;;;;;;3.67;2.40;;;11.50;99.90;;;;;;5073432;28;20205;-94
2021/10/19 03:35:28;;;;;;;3.03;2.50;;;11.50;99.90;;;;;;5058680;28;20209;-96
2021/10/19 03:38:03;;;;;;;3.07;2.30;;;11.50;99.90;;;;;;5055349;28;20216;-96
2021/10/19 04:12:56;;;;;;;1.83;1.60;;;11.40;99.90;;;;;;5071177;28;20226;-96
2021/10/19 04:15:30;;;;;;;2.83;1.87;;;11.40;99.90;;;;;;5072019;28;20262;-96
2021/10/19 04:18:03;;;;;;;4.07;1.80;;;11.30;99.90;;;;;;5072363;28;20204;-96
2021/10/19 04:20:35;;;;;;;1.30;1.20;;;11.30;99.90;;;;;;5064496;28;20243;-96
2021/10/19 04:23:07;;;;;;;3.03;1.80;;;11.30;99.90;;;;;;5060649;28;20271;-96
2021/10/19 04:30:52;;;;;;;2.17;1.83;;;11.30;99.90;;;;;;5070505;28;20215;-95
2021/10/19 04:33:27;;;;;;;1.97;1.60;;;11.30;99.90;;;;;;5068696;28;20215;-96
2021/10/19 04:35:59;;;;;;;3.33;1.70;;;11.30;99.90;;;;;;5061707;28;20208;-95
2021/10/19 04:38:31;;;;;;;2.90;1.73;;;11.20;99.90;;;;;;5065038;28;20211;-95
2021/10/19 04:41:04;;;;;;;2.90;1.90;;;11.20;99.90;;;;;;5054867;28;20227;-95
2021/10/19 04:43:40;;;;;;;2.50;1.87;;;11.20;99.90;;;;;;5067075;28;20238;-95
2021/10/19 04:46:15;;;;;;;4.03;2.00;;;11.20;99.90;;;;;;5047497;28;20219;-95
2021/10/19 04:48:46;;;;;;;2.47;1.80;;;11.20;99.90;;;;;;5040379;28;20290;-95
2021/10/19 04:51:22;;;;;;;3.07;1.83;;;11.20;99.90;;;;;;5046045;28;20213;-96
2021/10/19 04:53:55;;;;;;;4.50;2.10;;;11.10;99.90;;;;;;5045152;28;20219;-94
2021/10/19 04:56:27;;;;;;;2.63;2.30;;;11.10;99.90;;;;;;5045586;28;20212;-93
2021/10/19 04:59:00;;;;;;;5.00;2.83;;;11.20;99.90;;;;;;5052019;28;20201;-94
2021/10/19 05:01:35;;;;;;;5.33;2.50;;;11.20;99.90;;;;;;5059024;28;20216;-95
2021/10/19 05:04:13;;;;;;;3.40;2.47;;;11.20;99.90;;;;;;5039713;28;20223;-96
2021/10/19 05:06:52;;;;;;;4.70;2.30;;;11.20;99.90;;;;;;5039440;28;20278;-96
2021/10/19 05:09:23;;;;;;;3.63;2.23;;;11.10;99.90;;;;;;5039543;28;20212;-96
2021/10/19 05:11:55;;;;;;;5.23;2.40;;;11.10;99.90;;;;;;5059137;28;20223;-96
2021/10/19 05:14:27;;;;;;;4.10;2.37;;;11.10;99.90;;;;;;5065456;23;20233;-96
2021/10/19 05:17:02;;;;;;;4.00;2.60;;;11.10;99.90;;;;;;5041864;28;20193;-96
2021/10/19 05:19:34;;;;;;;2.87;2.13;;;11.10;99.90;;;;;;5034107;28;20217;-94
2021/10/19 05:22:05;;;;;;;5.60;2.47;;;11.10;99.90;;;;;;5019634;28;20222;-95
2021/10/19 05:24:37;;;;;;;4.30;2.20;;;11.10;99.90;;;;;;5038229;28;20233;-95
2021/10/19 05:27:09;;;;;;;4.20;2.37;;;11.10;99.90;;;;;;5042414;28;20217;-95
2021/10/19 05:29:41;;;;;;;5.50;2.40;;;11.10;99.90;;;;;;5039925;28;20240;-96
2021/10/19 05:32:15;;;;;;;3.57;2.43;;;11.10;99.90;;;;;;5039652;28;20231;-94
2021/10/19 05:34:46;;;;;;;6.23;3.10;;;11.10;99.90;;;;;;5039502;28;20200;-95
2021/10/19 05:37:21;;;;;;;4.60;2.73;;;11.00;99.90;;;;;;5037640;28;20235;-95
2021/10/19 05:39:53;;;;;;;4.10;2.60;;;11.00;99.90;;;;;;5037633;28;20231;-95
2021/10/19 05:42:44;;;;;;;5.07;2.17;;;11.00;99.90;;;;;;5038496;28;20220;-96
2021/10/19 05:45:17;;;;;;;4.93;2.83;;;11.00;99.90;;;;;;5037692;28;20203;-95
2021/10/19 05:47:51;;;;;;;5.03;2.93;;;11.00;99.90;;;;;;5018794;28;20248;-95
2021/10/19 05:50:23;;;;;;;6.83;3.17;;;10.90;99.90;;;;;;5058914;28;20204;-95
2021/10/19 05:52:56;;;;;;;2.90;2.17;;;10.90;99.90;;;;;;5048791;28;20229;-95
2021/10/19 05:55:27;;;;;;;4.27;2.57;;;10.90;99.90;;;;;;5038242;28;20220;-95
2021/10/19 05:58:04;;;;;;;3.87;2.27;;;10.90;99.90;;;;;;5038147;28;20264;-95
2021/10/19 06:00:52;;;;;;;3.10;2.13;;;10.90;99.90;;;;;;5039974;28;20247;-96
2021/10/19 06:03:29;;;;;;;3.83;2.37;;;10.90;99.90;;;;;;5052490;28;20260;-96
2021/10/19 06:06:01;;;;;;;3.23;2.20;;;10.90;99.90;;;;;;5056166;28;20208;-94
2021/10/19 06:08:33;;;;;;;7.93;2.40;;;10.90;99.90;;;;;;5044969;28;20245;-96
2021/10/19 06:11:06;;;;;;;4.30;2.60;;;10.90;99.90;;;;;;5037668;28;20213;-95
2021/10/19 06:13:38;;;;;;;4.03;2.47;;;10.90;99.90;;;;;;5051966;28;20235;-95
2021/10/19 06:16:10;;;;;;;3.00;2.03;;;10.90;99.90;;;;;;5040493;28;20216;-95
2021/10/19 06:18:49;;;;;;;5.43;2.57;;;10.90;99.90;;;;;;5039746;28;20212;-95
2021/10/19 06:21:22;;;;;;;4.63;2.43;;;10.90;99.90;;;;;;5040216;28;20212;-95
2021/10/19 06:23:54;;;;;;;3.17;2.23;;;10.80;99.90;;;;;;5039605;28;20213;-95
2021/10/19 06:26:30;;;;;;;5.93;2.10;;;10.80;99.90;;;;;;5039913;28;20190;-95
2021/10/19 06:29:02;;;;;;;4.13;2.40;;;10.80;99.90;;;;;;5039380;28;20255;-96
2021/10/19 06:31:37;;;;;;;3.13;2.00;;;10.80;99.90;;;;;;5022166;28;20206;-95
2021/10/19 06:34:11;;;;;;;4.07;1.90;;;10.90;99.90;;;;;;5052798;28;20231;-95
2021/10/19 06:36:43;;;;;;;4.43;2.57;;;10.80;99.90;;;;;;5045882;28;20635;-95
2021/10/19 06:39:17;;;;;;;3.27;2.30;;;10.80;99.90;;;;;;5041015;28;20236;-95
2021/10/19 06:41:48;;;;;;;3.77;2.10;;;10.80;99.90;;;;;;5039019;28;20236;-95
2021/10/19 06:44:20;;;;;;;5.27;2.37;;;10.90;99.90;;;;;;5038889;28;20209;-94
2021/10/19 06:47:14;;;;;;;4.57;2.37;;;10.90;99.90;;;;;;5037022;28;20209;-94
2021/10/19 06:49:49;;;;;;;3.43;2.07;;;10.90;99.90;;;;;;5035121;28;20256;-94
2021/10/19 06:52:22;;;;;;;3.13;1.87;;;10.90;99.90;;;;;;5038930;28;20291;-95
2021/10/19 06:54:55;;;;;;;5.27;2.20;;;10.90;99.90;;;;;;5039395;28;20213;-95
2021/10/19 06:57:27;;;;;;;3.70;2.07;;;10.90;99.90;;;;;;5046491;28;20208;-96
2021/10/19 07:00:04;;;;;;;4.77;2.30;;;10.90;99.90;;;;;;5051510;28;20204;-96
2021/10/19 07:02:49;;;;;;;3.33;1.87;;;10.80;99.90;;;;;;5045719;28;20197;-96
2021/10/19 07:05:26;;;;;;;3.07;1.90;;;10.80;99.90;;;;;;5038568;28;20288;-96
2021/10/19 07:10:58;;;;;;;2.87;2.00;;;10.80;99.90;;;;;;5044369;28;20288;-94
2021/10/19 07:13:45;;;;;;;5.03;1.97;;;10.80;99.90;;;;;;5042185;28;20239;-96
2021/10/19 07:16:19;;;;;;;4.43;2.17;;;10.90;99.90;;;;;;5100030;23;20272;-95
2021/10/19 07:19:00;;;;;;;9.13;2.23;;;10.90;99.90;;;;;;5028702;28;20265;-96
2021/10/19 07:21:39;;;;;;;3.03;2.07;;;10.90;99.90;;;;;;5026020;28;20217;-96
2021/10/19 07:24:31;;;;;;;5.03;2.30;;;10.90;99.90;;;;;;5016782;28;20274;-96
2021/10/19 07:29:48;;;;;;;3.60;2.17;;;10.80;99.90;;;;;;5344337;23;20244;-96
2021/10/19 07:32:22;;;;;;;3.13;2.20;;;10.80;99.90;;;;;;5288466;23;20332;-96
2021/10/19 07:34:54;;;;;;;3.00;2.20;;;10.80;99.90;;;;;;5044442;28;20209;-96
2021/10/19 07:37:29;;;;;;;3.83;2.20;;;10.80;99.90;;;;;;5044648;28;20208;-96
2021/10/19 07:40:01;;;;;;;3.30;1.90;;;10.80;99.90;;;;;;5038368;28;20238;-96
2021/10/19 07:42:33;;;;;;;3.17;1.70;;;10.80;99.90;;;;;;5029892;28;20205;-95
2021/10/19 07:45:09;;;;;;;5.70;2.30;;;10.80;99.90;;;;;;5033400;28;20727;-96
2021/10/19 07:47:44;;;;;;;2.70;2.03;;;10.90;99.90;;;;;;5032706;28;20206;-95
2021/10/19 07:50:24;;;;;;;2.93;2.20;;;10.90;99.90;;;;;;5036651;28;20270;-96
2021/10/19 07:53:00;;;;;;;2.63;1.80;;;10.90;99.90;;;;;;5038049;28;20206;-95
2021/10/19 07:55:44;;;;;;;5.53;2.03;;;10.80;99.90;;;;;;5290205;23;20263;-96
2021/10/19 07:58:46;;;;;;;4.13;2.13;;;11.00;99.90;;;;;;5175743;22;20246;-96
2021/10/19 08:01:26;;;;;;;2.53;1.60;;;10.90;99.90;;;;;;5011855;28;20206;-96
2021/10/19 08:04:06;;;;;;;3.20;2.40;;;10.90;99.90;;;;;;5007333;28;20210;-96
2021/10/19 08:06:39;;;;;;;3.87;2.60;;;10.90;99.90;;;;;;5007264;28;20214;-96
2021/10/19 08:09:15;;;;;;;2.83;1.83;;;10.90;99.90;;;;;;5004089;28;20261;-96
2021/10/19 08:11:48;;;;;;;4.50;2.30;;;10.80;99.90;;;;;;5009207;28;20213;-96
2021/10/19 08:14:20;;;;;;;5.27;2.33;;;10.80;99.90;;;;;;5010248;28;20207;-96
2021/10/19 08:16:54;;;;;;;4.30;2.23;;;10.80;99.90;;;;;;5012565;28;20237;-96
2021/10/19 08:19:27;;;;;;;2.97;2.40;;;10.80;99.90;;;;;;5015948;28;20216;-96
2021/10/19 08:22:00;;;;;;;5.10;2.73;;;10.80;99.90;;;;;;4972759;28;20233;-95
2021/10/19 08:24:35;;;;;;;3.60;2.03;;;10.70;99.90;;;;;;5018006;28;20202;-96
2021/10/19 08:27:07;;;;;;;5.93;2.17;;;10.70;99.90;;;;;;5098544;23;20243;-96
2021/10/19 08:29:38;;;;;;;2.07;1.87;;;10.80;99.90;;;;;;4981241;28;20249;-96
2021/10/19 08:32:18;;;;;;;4.67;1.90;;;10.80;99.90;;;;;;5009001;28;20210;-95
2021/10/19 08:34:50;;;;;;;6.40;2.53;;;10.80;99.90;;;;;;5019281;28;20229;-95
2021/10/19 08:37:22;;;;;;;2.70;2.10;;;10.80;99.90;;;;;;5018219;28;20742;-96
2021/10/19 08:39:58;;;;;;;4.73;2.20;;;10.80;99.90;;;;;;5018304;28;20740;-95
2021/10/19 08:42:30;;;;;;;5.23;2.20;;;10.70;99.90;;;;;;5018848;28;20205;-95
2021/10/19 08:45:03;;;;;;;2.73;2.10;;;10.60;99.90;;;;;;5017721;28;20210;-95
2021/10/19 08:47:37;;;;;;;2.57;1.97;;;10.60;99.90;;;;;;5001520;28;20209;-95
2021/10/19 08:50:12;;;;;;;3.90;2.53;;;10.70;99.90;;;;;;5018407;28;20237;-95
2021/10/19 08:52:44;;;;;;;2.47;2.20;;;10.70;99.90;;;;;;5017399;28;20280;-96
2021/10/19 08:55:22;;;;;;;4.67;2.20;;;10.60;99.90;;;;;;5017861;28;20216;-96
2021/10/19 08:57:56;;;;;;;2.43;2.00;;;10.60;99.90;;;;;;5018225;28;20213;-96
2021/10/19 09:00:30;;;;;;;3.63;2.20;;;10.60;99.90;;;;;;5018392;28;20217;-95
2021/10/19 09:03:07;;;;;;;4.03;2.30;;;10.50;99.90;;;;;;5018016;28;20238;-96
2021/10/19 09:05:40;;;;;;;2.27;1.73;;;10.50;99.90;;;;;;5017227;28;20660;-95
2021/10/19 09:08:13;;;;;;;2.70;1.80;;;10.40;99.90;;;;;;5000901;28;20217;-96
2021/10/19 09:10:49;;;;;;;3.67;2.10;;;10.40;99.90;;;;;;4985041;28;20276;-96
2021/10/19 09:13:24;;;;;;;4.03;2.00;;;10.30;99.90;;;;;;5000837;28;20237;-96
2021/10/19 09:15:59;;;;;;;4.77;2.10;;;10.20;99.90;;;;;;4984930;28;20631;-96
2021/10/19 09:18:31;;;;;;;4.10;2.20;;;10.20;99.90;;;;;;5017852;28;20209;-96
2021/10/19 09:21:03;;;;;;;2.30;1.67;;;10.20;99.90;;;;;;5017668;28;20205;-96
2021/10/19 09:23:34;;;;;;;3.80;2.13;;;10.20;99.90;;;;;;5017420;28;20210;-96
2021/10/19 09:26:08;;;;;;;1.73;1.50;;;10.10;99.90;;;;;;5016791;28;20213;-96
2021/10/19 09:28:41;;;;;;;3.73;1.60;;;10.10;99.90;;;;;;4999843;28;20206;-96
2021/10/19 09:31:14;;;;;;;3.10;2.00;;;10.10;99.90;;;;;;5016747;28;20236;-96
2021/10/19 09:33:45;;;;;;;2.63;1.63;;;10.00;99.90;;;;;;4998350;28;20217;-96
2021/10/19 09:36:17;;;;;;;2.30;1.70;;;10.00;99.90;;;;;;4997308;28;20209;-96
2021/10/19 09:38:52;;;;;;;3.70;1.80;;;10.00;99.90;;;;;;4999442;28;20241;-96
2021/10/19 09:41:26;;;;;;;2.03;1.67;;;9.90;99.90;;;;;;5017230;28;20674;-96
2021/10/19 09:43:59;;;;;;;2.43;1.97;;;9.80;99.90;;;;;;5017705;28;20205;-95
2021/10/19 09:46:30;;;;;;;9.30;2.10;;;9.80;99.90;;;;;;5016087;28;20302;-95
2021/10/19 09:49:03;;;;;;;4.23;2.03;;;9.80;99.90;;;;;;4987770;28;20213;-95
2021/10/19 09:51:38;;;;;;;4.43;2.07;;;9.80;99.90;;;;;;5017201;28;20296;-94
2021/10/19 09:54:11;;;;;;;3.57;1.90;;;9.80;99.90;;;;;;5018538;28;20229;-94
2021/10/19 09:56:44;;;;;;;3.07;1.90;;;9.80;99.90;;;;;;5019067;28;20660;-94
2021/10/19 09:59:22;;;;;;;3.67;1.93;;;9.80;99.90;;;;;;5019697;28;20616;-94
2021/10/19 10:01:54;;;;;;;5.17;2.17;;;9.80;99.90;;;;;;5017822;28;20279;-96
2021/10/19 10:04:26;;;;;;;3.97;1.80;;;9.80;99.90;;;;;;5017207;28;20280;-96
2021/10/19 10:07:01;;;;;;;3.20;2.33;;;9.80;99.90;;;;;;5016118;28;20256;-95
2021/10/19 10:09:33;;;;;;;5.07;2.70;;;9.80;99.90;;;;;;5016785;28;20324;-95
2021/10/19 10:12:08;;;;;;;4.47;2.37;;;9.70;99.90;;;;;;5016746;28;20225;-96
2021/10/19 10:14:50;;;;;;;5.27;2.23;;;9.70;99.90;;;;;;5016591;28;20220;-95
2021/10/19 10:17:22;;;;;;;12.10;3.27;;;9.70;99.90;;;;;;5016785;28;20209;-95
2021/10/19 10:20:08;;;;;;;3.93;2.03;;;9.70;99.90;;;;;;5016881;28;20217;-95
2021/10/19 10:22:45;;;;;;;4.40;2.40;;;9.70;99.90;;;;;;5017118;28;20213;-94
2021/10/19 10:25:20;;;;;;;5.80;3.00;;;9.70;99.90;;;;;;5016291;28;20222;-95
2021/10/19 10:27:54;;;;;;;3.73;2.20;;;9.70;99.90;;;;;;5016707;28;20228;-95
2021/10/19 10:30:27;;;;;;;4.90;2.80;;;9.70;99.90;;;;;;5034739;28;20262;-96
2021/10/19 10:33:07;;;;;;;5.50;3.03;;;9.80;99.90;;;;;;5025121;28;20249;-95
2021/10/19 10:35:45;;;;;;;6.33;3.47;;;9.80;99.90;;;;;;5035483;28;20205;-95
2021/10/19 10:38:17;;;;;;;7.83;3.03;;;9.80;99.90;;;;;;5035079;28;20213;-95
2021/10/19 10:40:48;;;;;;;6.63;3.57;;;9.80;99.90;;;;;;5023224;28;20205;-94
2021/10/19 10:43:37;;;;;;;5.17;3.50;;;9.80;99.90;;;;;;5018753;28;20209;-95
2021/10/19 10:46:11;;;;;;;7.53;3.83;;;9.70;99.90;;;;;;5017249;28;21031;-95
2021/10/19 10:48:42;;;;;;;7.07;4.00;;;9.70;99.90;;;;;;5016860;28;20332;-96
2021/10/19 10:51:16;;;;;;;8.20;3.77;;;9.70;99.90;;;;;;5017379;28;20268;-95
2021/10/19 10:53:48;;;;;;;5.33;3.47;;;9.70;99.90;;;;;;5017249;28;20308;-96
2021/10/19 10:56:21;;;;;;;4.43;3.17;;;9.60;99.90;;;;;;5017255;28;20241;-96
2021/10/19 10:58:56;;;;;;;3.63;3.23;;;9.50;99.90;;;;;;5017199;28;20727;-96
2021/10/19 11:01:30;;;;;;;4.83;3.30;;;9.40;99.90;;;;;;5016590;28;20205;-96
2021/10/19 11:04:08;;;;;;;5.60;3.37;;;9.40;99.90;;;;;;4999530;28;20227;-96
2021/10/19 11:06:42;;;;;;;7.33;3.63;;;9.30;99.90;;;;;;4998942;28;20206;-96
2021/10/19 11:09:15;;;;;;;3.10;2.63;;;9.20;99.90;;;;;;4999564;28;20534;-96
2021/10/19 11:11:48;;;;;;;4.77;3.60;;;9.10;99.90;;;;;;5016018;28;20259;-96
2021/10/19 11:14:26;;;;;;;7.43;3.40;;;9.10;99.90;;;;;;5016224;28;20277;-96
2021/10/19 11:16:58;;;;;;;4.03;2.93;;;9.00;99.90;;;;;;4998516;28;20679;-95
2021/10/19 11:19:31;;;;;;;3.57;3.17;;;8.90;99.90;;;;;;5016177;28;20236;-96
2021/10/19 11:22:05;;;;;;;5.77;3.23;;;8.80;99.90;;;;;;5016051;28;20218;-96
2021/10/19 11:24:38;;;;;;;5.90;3.10;;;8.80;99.90;;;;;;5016119;28;20220;-96
2021/10/19 11:27:10;;;;;;;5.53;3.27;;;8.70;99.90;;;;;;5015740;28;20244;-96
2021/10/19 11:29:43;;;;;;;3.73;3.00;;;8.70;99.90;;;;;;5016337;28;20214;-96
2021/10/19 11:32:16;;;;;;;7.53;3.30;;;8.60;99.90;;;;;;5016495;28;20297;-95
2021/10/19 11:34:48;;;;;;;6.00;3.27;;;8.60;99.90;;;;;;4999126;28;20220;-96
2021/10/19 11:37:19;;;;;;;4.57;3.30;;;8.50;99.90;;;;;;5016866;28;20228;-95
2021/10/19 11:39:53;;;;;;;5.37;3.53;;;8.40;99.90;;;;;;5016791;28;20209;-96
2021/10/19 11:42:25;;;;;;;4.70;3.33;;;8.40;99.90;;;;;;5016333;28;20321;-96
2021/10/19 11:44:59;;;;;;;5.73;3.53;;;8.40;99.90;;;;;;5014822;28;20268;-95
2021/10/19 11:47:30;;;;;;;5.03;3.47;;;8.30;99.90;;;;;;5015885;28;20225;-96
2021/10/19 11:50:03;;;;;;;5.57;3.80;;;8.30;99.90;;;;;;5016298;28;20283;-96
2021/10/19 11:52:36;;;;;;;5.83;3.70;;;8.30;99.90;;;;;;5018212;28;20578;-96
2021/10/19 11:55:08;;;;;;;5.73;3.53;;;8.20;99.90;;;;;;5002330;28;20800;-96
2021/10/19 11:57:40;;;;;;;5.17;3.57;;;8.20;99.90;;;;;;5003958;28;20220;-96
2021/10/19 12:00:15;;;;;;;8.80;3.47;;;8.20;99.90;;;;;;5019040;28;20303;-96
2021/10/19 12:02:54;;;;;;;4.77;3.10;;;8.10;99.90;;;;;;5020250;28;20239;-96
2021/10/19 12:05:27;;;;;;;6.13;3.30;;;8.10;99.90;;;;;;5020015;28;20208;-96
2021/10/19 12:08:02;;;;;;;6.60;3.53;;;8.10;99.90;;;;;;5019784;28;20708;-95
2021/10/19 12:10:34;;;;;;;4.00;3.30;;;8.00;99.90;;;;;;5021083;28;20214;-94
2021/10/19 12:13:10;;;;;;;5.60;3.47;;;8.00;99.90;;;;;;5024583;28;20200;-94
2021/10/19 12:15:43;;;;;;;6.67;3.63;;;7.90;99.90;;;;;;5018885;28;20662;-95
2021/10/19 12:18:20;;;;;;;5.43;3.50;;;7.90;99.90;;;;;;5019614;28;20240;-95
2021/10/19 12:20:52;;;;;;;5.43;3.53;;;7.90;99.90;;;;;;5020373;28;20213;-95
2021/10/19 12:23:23;;;;;;;6.00;3.70;;;7.80;99.90;;;;;;5018384;28;20243;-96
2021/10/19 12:25:57;;;;;;;6.53;3.67;;;7.80;99.90;;;;;;5021042;28;20217;-95
2021/10/19 12:28:38;;;;;;;4.73;3.70;;;7.70;99.90;;;;;;5025313;28;20227;-95
2021/10/19 12:31:16;;;;;;;7.10;3.87;;;7.70;99.90;;;;;;5035937;28;20247;-95
2021/10/19 12:33:56;;;;;;;7.73;3.63;;;7.70;99.90;;;;;;5005199;28;20221;-96
2021/10/19 12:36:41;;;;;;;5.70;3.43;;;7.60;99.90;;;;;;5019324;28;20211;-95
2021/10/19 12:39:17;;;;;;;5.47;3.60;;;7.60;99.90;;;;;;5014923;28;20237;-95
2021/10/19 12:41:50;;;;;;;6.67;3.37;;;7.60;99.90;;;;;;5033111;28;20221;-94
2021/10/19 12:44:26;;;;;;;5.90;3.70;;;7.50;99.90;;;;;;5034835;28;20209;-96
2021/10/19 12:47:02;;;;;;;7.57;3.90;;;7.50;99.90;;;;;;5032847;28;20213;-96
2021/10/19 12:49:35;;;;;;;6.13;3.77;;;7.50;99.90;;;;;;5033032;28;20210;-96
2021/10/19 12:52:07;;;;;;;5.23;4.03;;;7.50;99.90;;;;;;5030587;28;20236;-96
2021/10/19 12:54:41;;;;;;;6.20;4.00;;;7.50;99.90;;;;;;5030155;28;20208;-96
2021/10/19 12:57:14;;;;;;;5.97;3.93;;;7.50;99.90;;;;;;5023341;28;20286;-95
2021/10/19 12:59:46;;;;;;;6.50;3.70;;;7.50;99.90;;;;;;5021616;28;20236;-94
2021/10/19 13:02:25;;;;;;;9.17;4.17;;;7.50;99.90;;;;;;5004443;28;20216;-96
2021/10/19 13:05:02;;;;;;;6.73;3.80;;;7.40;99.90;;;;;;5017151;28;20207;-95
2021/10/19 13:07:34;;;;;;;6.57;4.40;;;7.40;99.90;;;;;;5035362;28;20201;-95
2021/10/19 13:10:11;;;;;;;6.00;4.30;;;7.50;99.90;;;;;;5037138;28;20201;-96
2021/10/19 13:12:46;;;;;;;6.33;4.37;;;7.50;99.90;;;;;;5038145;28;20222;-96
2021/10/19 13:15:17;;;;;;;6.03;4.03;;;7.40;99.90;;;;;;5026155;28;20307;-94
2021/10/19 13:17:51;;;;;;;6.60;4.20;;;7.40;99.90;;;;;;5041728;23;20239;-94
2021/10/19 13:20:23;;;;;;;6.70;4.10;;;7.40;99.90;;;;;;5037967;28;20207;-95
2021/10/19 13:22:54;;;;;;;8.27;3.93;;;7.30;99.90;;;;;;5025046;28;20233;-96
2021/10/19 13:25:26;;;;;;;7.77;4.27;;;7.30;99.90;;;;;;5022361;28;20232;-96
2021/10/19 13:27:58;;;;;;;4.93;4.23;;;7.30;99.90;;;;;;5019097;28;20197;-96
2021/10/19 13:30:29;;;;;;;7.70;4.23;;;7.30;99.90;;;;;;5019028;28;20255;-95
2021/10/19 13:33:02;;;;;;;6.23;4.23;;;7.30;99.90;;;;;;5018793;28;20239;-96
2021/10/19 13:35:36;;;;;;;5.23;4.23;;;7.30;99.90;;;;;;5024846;28;20232;-96
2021/10/19 13:38:08;;;;;;;6.73;4.53;;;7.30;99.90;;;;;;5021236;28;20211;-96
2021/10/19 13:40:46;;;;;;;6.50;4.87;;;7.20;99.90;;;;;;5134500;22;20244;-95
2021/10/19 13:43:17;;;;;;;7.63;4.40;;;7.20;99.90;;;;;;5017185;28;20219;-95
2021/10/19 13:45:51;;;;;;;5.97;4.53;;;7.20;99.90;;;;;;5023558;28;20204;-96
2021/10/19 13:48:25;;;;;;;7.30;4.47;;;7.20;99.90;;;;;;5031960;28;20231;-96
2021/10/19 13:50:58;;;;;;;6.43;4.67;;;7.20;99.90;;;;;;5016677;28;20222;-96
2021/10/19 13:53:29;;;;;;;6.03;4.80;;;7.20;99.90;;;;;;5032949;28;20239;-96
2021/10/19 13:56:02;;;;;;;10.50;5.30;;;7.20;99.90;;;;;;5029980;28;20197;-96
2021/10/19 13:58:37;;;;;;;6.43;5.00;;;7.20;99.90;;;;;;5029158;28;20687;-95
2021/10/19 14:01:13;;;;;;;7.50;5.43;;;7.20;99.90;;;;;;5021469;28;20299;-96
2021/10/19 14:03:48;;;;;;;12.77;5.57;;;7.20;99.90;;;;;;5027044;28;20281;-96
2021/10/19 14:06:21;;;;;;;5.33;4.33;;;7.20;99.90;;;;;;5024189;28;20212;-96
2021/10/19 14:08:55;;;;;;;7.57;5.43;;;7.10;99.90;;;;;;5026794;28;20241;-96
2021/10/19 14:11:27;;;;;;;7.10;4.97;;;7.20;99.90;;;;;;5026069;28;20292;-96
2021/10/19 14:14:10;;;;;;;7.87;4.77;;;7.10;99.90;;;;;;5024878;28;20240;-96
2021/10/19 14:16:43;;;;;;;6.57;4.47;;;7.10;99.90;;;;;;5025935;28;20197;-96
2021/10/19 14:19:19;;;;;;;8.63;5.30;;;7.00;99.90;;;;;;5042956;28;20212;-96
2021/10/19 14:21:58;;;;;;;6.40;4.80;;;7.00;99.90;;;;;;5044639;28;20185;-96
2021/10/19 14:24:35;;;;;;;8.57;5.47;;;7.00;99.90;;;;;;5031117;28;20205;-96
2021/10/19 14:27:11;;;;;;;6.30;4.87;;;7.00;99.90;;;;;;5032103;28;20212;-96
2021/10/19 14:32:42;;;;;;;7.23;5.17;;;7.00;99.90;;;;;;5033586;28;20268;-96
2021/10/19 14:35:18;;;;;;;6.77;4.50;;;7.10;99.90;;;;;;5032805;28;20205;-95